Time;durP1;ratioP1;P1;durP2;ratioP2;P2;SDS_P1;SDS_P2;PMS_P1;PMS_P2;Temp;Humidity;BMP_temperature;BMP_pressure;BME280_temperature;BME280_humidity;BME280_pressure;Samples;Min_cycle;Max_cycle;Signal;HPM_P1;HPM_P2
2022/12/08 00:01:05;;;;;;;16.27;8.57;;;1.70;99.90;;;;;;4414600;28;658621;-69
2022/12/08 00:03:52;;;;;;;20.27;9.38;;;1.60;99.90;;;;;;4403151;28;658724;-69
2022/12/08 00:09:46;;;;;;;10.00;5.87;;;1.70;99.90;;;;;;4372561;28;658106;-68
2022/12/08 00:12:34;;;;;;;19.97;9.93;;;1.80;99.90;;;;;;4410701;28;658153;-69
2022/12/08 00:15:21;;;;;;;19.67;8.73;;;1.80;99.90;;;;;;4394820;28;657728;-69
2022/12/08 00:18:08;;;;;;;18.40;9.03;;;1.80;99.90;;;;;;4415449;28;658430;-68
2022/12/08 00:20:55;;;;;;;16.47;7.73;;;1.80;99.90;;;;;;4396337;28;657609;-67
2022/12/08 00:23:42;;;;;;;18.03;9.47;;;1.70;99.90;;;;;;4412470;28;658771;-69
2022/12/08 00:26:31;;;;;;;14.03;7.60;;;1.70;99.90;;;;;;4414417;28;657494;-68
2022/12/08 00:29:19;;;;;;;16.30;8.67;;;1.80;99.90;;;;;;4418418;28;658569;-69
2022/12/08 00:32:06;;;;;;;18.67;9.40;;;1.70;99.90;;;;;;4397184;28;657407;-69
2022/12/08 00:34:53;;;;;;;17.00;8.52;;;1.80;99.90;;;;;;4417347;28;658816;-69
2022/12/08 00:37:41;;;;;;;15.87;6.87;;;1.60;99.90;;;;;;4393103;28;658140;-68
2022/12/08 00:40:28;;;;;;;19.83;8.57;;;1.70;99.90;;;;;;4413234;28;659156;-69
2022/12/08 00:43:17;;;;;;;15.27;7.15;;;1.70;99.90;;;;;;4402267;28;658603;-68
2022/12/08 00:46:04;;;;;;;19.43;9.37;;;1.70;99.90;;;;;;4413472;28;658946;-69
2022/12/08 00:48:51;;;;;;;12.90;6.47;;;1.70;99.90;;;;;;4393478;28;657655;-70
2022/12/08 00:51:38;;;;;;;17.77;8.93;;;1.70;99.90;;;;;;4414388;28;658721;-69
2022/12/08 00:54:25;;;;;;;15.97;7.90;;;1.70;99.90;;;;;;4391921;28;657331;-68
2022/12/08 00:57:12;;;;;;;15.10;7.57;;;1.80;99.90;;;;;;4415945;28;658174;-67
2022/12/08 01:00:01;;;;;;;14.40;6.97;;;1.70;99.90;;;;;;4411473;28;657496;-68
2022/12/08 01:02:48;;;;;;;12.27;5.70;;;1.80;99.90;;;;;;4387709;28;657631;-67
2022/12/08 01:05:35;;;;;;;15.20;7.50;;;1.80;99.90;;;;;;4391517;28;657674;-68
2022/12/08 01:08:22;;;;;;;10.33;5.27;;;1.80;99.90;;;;;;4417254;28;658528;-68
2022/12/08 01:11:11;;;;;;;12.50;6.47;;;1.70;99.90;;;;;;4414089;28;657394;-68
2022/12/08 01:13:58;;;;;;;15.60;8.03;;;1.70;99.90;;;;;;4416678;28;659166;-68
2022/12/08 01:16:47;;;;;;;15.00;7.67;;;1.80;99.90;;;;;;4391610;28;657668;-69
2022/12/08 01:19:34;;;;;;;14.20;7.73;;;1.80;99.90;;;;;;4410819;28;658251;-68
2022/12/08 01:22:21;;;;;;;15.20;7.93;;;1.70;99.90;;;;;;4397609;28;657847;-69
2022/12/08 01:25:09;;;;;;;17.87;9.33;;;1.70;99.90;;;;;;4417770;28;658481;-68
2022/12/08 01:27:56;;;;;;;16.70;8.40;;;1.70;99.90;;;;;;4390907;28;658035;-68
2022/12/08 01:30:43;;;;;;;18.83;8.73;;;1.70;99.90;;;;;;4409731;28;658426;-68
2022/12/08 01:33:32;;;;;;;15.30;7.50;;;1.80;99.90;;;;;;4395018;28;658049;-68
2022/12/08 01:36:20;;;;;;;19.63;9.43;;;1.80;99.90;;;;;;4414364;28;658534;-69
2022/12/08 01:39:08;;;;;;;13.17;6.03;;;1.80;99.90;;;;;;4392889;28;657399;-69
2022/12/08 01:41:56;;;;;;;22.10;10.40;;;1.80;99.90;;;;;;4394214;28;657800;-68
2022/12/08 01:44:57;;;;;;;14.73;7.03;;;1.80;99.90;;;;;;4408561;28;658890;-68
2022/12/08 01:47:46;;;;;;;9.93;4.73;;;1.90;99.90;;;;;;4402475;28;657423;-67
2022/12/08 01:50:35;;;;;;;9.60;4.77;;;1.80;99.90;;;;;;4416240;28;657903;-68
2022/12/08 01:53:23;;;;;;;14.37;6.13;;;1.90;99.90;;;;;;4391414;28;657292;-68
2022/12/08 01:56:12;;;;;;;8.03;4.50;;;1.80;99.90;;;;;;4395485;28;657801;-68
2022/12/08 01:58:59;;;;;;;11.17;4.40;;;1.80;99.90;;;;;;4418502;28;656513;-67
2022/12/08 02:01:46;;;;;;;14.13;6.67;;;1.80;99.90;;;;;;4386794;28;657289;-67
2022/12/08 02:04:33;;;;;;;15.73;7.60;;;1.80;99.90;;;;;;4412819;28;657777;-68
2022/12/08 02:07:22;;;;;;;10.82;6.45;;;1.80;99.90;;;;;;4393483;28;657713;-68
2022/12/08 02:10:10;;;;;;;13.63;7.17;;;1.80;99.90;;;;;;4407882;28;657468;-69
2022/12/08 02:12:57;;;;;;;12.77;6.97;;;1.80;99.90;;;;;;4387200;28;659075;-68
2022/12/08 02:15:49;;;;;;;17.80;9.10;;;1.80;99.90;;;;;;4411921;28;658307;-68
2022/12/08 02:18:42;;;;;;;13.10;6.33;;;1.80;99.90;;;;;;4370137;28;657803;-68
2022/12/08 02:21:31;;;;;;;13.90;6.70;;;1.80;99.90;;;;;;4391676;28;657727;-68
2022/12/08 02:24:23;;;;;;;16.00;8.67;;;1.80;99.90;;;;;;4391525;28;658351;-68
2022/12/08 02:27:30;;;;;;;12.30;6.10;;;1.80;99.90;;;;;;4372605;28;657726;-68
2022/12/08 02:30:24;;;;;;;14.97;7.80;;;1.80;99.90;;;;;;4392605;28;657587;-69
2022/12/08 02:33:27;;;;;;;13.73;7.23;;;1.80;99.90;;;;;;4366066;28;659438;-68
2022/12/08 02:36:19;;;;;;;11.20;6.00;;;1.70;99.90;;;;;;4410496;28;657776;-69
2022/12/08 02:39:11;;;;;;;21.30;8.48;;;1.70;99.90;;;;;;4395505;28;657601;-68
2022/12/08 02:42:02;;;;;;;14.03;8.03;;;1.70;99.90;;;;;;4387512;28;657960;-68
2022/12/08 02:44:52;;;;;;;13.73;7.50;;;1.70;99.90;;;;;;4389682;28;657715;-67
2022/12/08 02:47:39;;;;;;;13.47;7.20;;;1.70;99.90;;;;;;4389197;28;657580;-68
2022/12/08 02:50:26;;;;;;;12.20;6.70;;;1.70;99.90;;;;;;4394953;28;657969;-68
2022/12/08 02:53:15;;;;;;;15.63;9.13;;;1.70;99.90;;;;;;4407122;28;658063;-69
2022/12/08 02:56:05;;;;;;;17.93;9.13;;;1.70;99.90;;;;;;4393651;28;658893;-68
2022/12/08 02:59:13;;;;;;;12.50;6.73;;;1.70;99.90;;;;;;4394205;28;657370;-67
2022/12/08 03:02:14;;;;;;;16.13;8.77;;;1.70;99.90;;;;;;4802705;28;658454;-68
2022/12/08 03:05:04;;;;;;;15.80;9.30;;;1.60;99.90;;;;;;4395828;28;657476;-68
2022/12/08 03:07:55;;;;;;;19.03;9.67;;;1.60;99.90;;;;;;4391263;28;657647;-68
2022/12/08 03:10:46;;;;;;;6.53;4.13;;;1.60;99.90;;;;;;4386066;28;658225;-67
2022/12/08 03:13:36;;;;;;;16.10;9.93;;;1.60;99.90;;;;;;4389358;28;657755;-68
2022/12/08 03:16:25;;;;;;;17.30;10.23;;;1.50;99.90;;;;;;4390971;28;658351;-68
2022/12/08 03:19:16;;;;;;;19.70;10.00;;;1.50;99.90;;;;;;4397122;28;659401;-68
2022/12/08 03:22:03;;;;;;;16.73;9.60;;;1.40;99.90;;;;;;4389417;28;658917;-68
2022/12/08 03:24:51;;;;;;;20.93;10.60;;;1.30;99.90;;;;;;4394562;28;657023;-68
2022/12/08 03:27:40;;;;;;;23.43;10.87;;;1.30;99.90;;;;;;4415074;28;659574;-68
2022/12/08 03:30:27;;;;;;;18.60;10.67;;;1.30;99.90;;;;;;4391848;28;660121;-68
2022/12/08 03:33:16;;;;;;;18.10;10.20;;;1.30;99.90;;;;;;4421738;28;658365;-68
2022/12/08 03:36:04;;;;;;;16.57;9.87;;;1.40;99.90;;;;;;4390792;28;659105;-68
2022/12/08 03:38:52;;;;;;;18.67;10.63;;;1.30;99.90;;;;;;4395319;28;657716;-68
2022/12/08 03:41:40;;;;;;;20.13;11.57;;;1.30;99.90;;;;;;4404443;28;658468;-68
2022/12/08 03:44:29;;;;;;;14.60;8.70;;;1.30;99.90;;;;;;4419328;28;658594;-68
2022/12/08 03:47:16;;;;;;;16.47;8.40;;;1.40;99.90;;;;;;4394410;28;657592;-68
2022/12/08 03:50:03;;;;;;;17.43;8.83;;;1.30;99.90;;;;;;4415867;28;657320;-68
2022/12/08 03:52:50;;;;;;;15.43;8.60;;;1.40;99.90;;;;;;4395094;28;657534;-68
2022/12/08 03:55:37;;;;;;;17.93;9.07;;;1.30;99.90;;;;;;4416237;28;658174;-67
2022/12/08 03:58:26;;;;;;;14.93;8.93;;;1.20;99.90;;;;;;4412590;28;658165;-67
2022/12/08 04:01:14;;;;;;;15.80;8.57;;;1.30;99.90;;;;;;4416486;28;658023;-68
2022/12/08 04:04:01;;;;;;;14.30;7.97;;;1.20;99.90;;;;;;4391531;28;657590;-68
2022/12/08 04:06:49;;;;;;;12.33;6.57;;;1.30;99.90;;;;;;4412782;28;657636;-67
2022/12/08 04:09:37;;;;;;;15.97;8.67;;;1.30;99.90;;;;;;4395134;28;657821;-68
2022/12/08 04:12:25;;;;;;;18.03;8.90;;;1.30;99.90;;;;;;4416142;28;658276;-68
2022/12/08 04:15:12;;;;;;;16.43;8.50;;;1.20;99.90;;;;;;4392358;28;658655;-69
2022/12/08 04:18:00;;;;;;;16.03;8.17;;;1.20;99.90;;;;;;4412246;28;657560;-69
2022/12/08 04:20:47;;;;;;;16.80;9.00;;;1.10;99.90;;;;;;4393542;28;658518;-69
2022/12/08 04:23:34;;;;;;;19.83;9.43;;;1.20;99.90;;;;;;4408768;28;658742;-69
2022/12/08 04:26:22;;;;;;;22.00;9.47;;;1.20;99.90;;;;;;4396086;28;657577;-69
2022/12/08 04:29:09;;;;;;;22.07;11.07;;;1.20;99.90;;;;;;4418434;28;657295;-68
2022/12/08 04:31:56;;;;;;;20.13;10.80;;;1.20;99.90;;;;;;4389569;28;659655;-68
2022/12/08 04:34:44;;;;;;;18.43;10.80;;;1.30;99.90;;;;;;4416259;28;659147;-68
2022/12/08 04:37:31;;;;;;;19.83;11.00;;;1.20;99.90;;;;;;4396916;28;659650;-69
2022/12/08 04:40:19;;;;;;;21.20;11.13;;;1.30;99.90;;;;;;4411680;28;658839;-68
2022/12/08 04:43:06;;;;;;;19.90;11.00;;;1.30;99.90;;;;;;4386979;28;658632;-69
2022/12/08 04:45:53;;;;;;;24.17;10.60;;;1.20;99.90;;;;;;4406717;28;659414;-68
2022/12/08 04:48:40;;;;;;;20.75;10.63;;;1.20;99.90;;;;;;4387861;28;658644;-68
2022/12/08 04:51:29;;;;;;;23.03;11.97;;;1.30;99.90;;;;;;4412676;28;658119;-68
2022/12/08 04:54:16;;;;;;;22.50;11.57;;;1.30;99.90;;;;;;4388155;28;658712;-68
2022/12/08 04:57:03;;;;;;;19.73;10.60;;;1.30;99.90;;;;;;4411768;28;660314;-68
2022/12/08 04:59:50;;;;;;;23.23;12.13;;;1.30;99.90;;;;;;4393514;28;658570;-68
2022/12/08 05:02:37;;;;;;;24.57;12.10;;;1.30;99.90;;;;;;4417194;28;658475;-69
2022/12/08 05:05:24;;;;;;;21.27;11.70;;;1.30;99.90;;;;;;4409479;28;658779;-69
2022/12/08 05:08:13;;;;;;;25.13;11.53;;;1.30;99.90;;;;;;4390284;28;659246;-68
2022/12/08 05:11:03;;;;;;;21.73;11.43;;;1.40;99.90;;;;;;4396503;28;659074;-68
2022/12/08 05:13:50;;;;;;;19.77;10.10;;;1.30;99.90;;;;;;4388575;28;658417;-68
2022/12/08 05:16:38;;;;;;;22.53;12.57;;;1.20;99.90;;;;;;4409990;28;658722;-69
2022/12/08 05:19:25;;;;;;;25.37;12.80;;;1.20;99.90;;;;;;4391150;28;658672;-68
2022/12/08 05:22:12;;;;;;;24.02;12.95;;;1.20;99.90;;;;;;4414628;28;659655;-68
2022/12/08 05:25:01;;;;;;;27.27;13.33;;;1.10;99.90;;;;;;4410954;28;658812;-69
2022/12/08 05:27:48;;;;;;;26.83;14.40;;;1.10;99.90;;;;;;4385358;28;659885;-69
2022/12/08 05:30:35;;;;;;;23.57;12.73;;;1.10;99.90;;;;;;4394598;28;658715;-68
2022/12/08 05:33:22;;;;;;;26.92;13.60;;;1.10;99.90;;;;;;4414530;28;659571;-68
2022/12/08 05:36:09;;;;;;;24.03;12.27;;;1.10;99.90;;;;;;4407188;28;658650;-68
2022/12/08 05:38:57;;;;;;;23.27;12.97;;;1.10;99.90;;;;;;4387862;28;659578;-68
2022/12/08 05:41:45;;;;;;;24.70;12.70;;;1.10;99.90;;;;;;4407820;28;658510;-69
2022/12/08 05:44:32;;;;;;;22.43;12.23;;;1.00;99.90;;;;;;4388466;28;660375;-68
2022/12/08 05:47:19;;;;;;;22.67;12.40;;;1.00;99.90;;;;;;4415144;28;658048;-68
2022/12/08 05:50:07;;;;;;;23.03;11.80;;;1.10;99.90;;;;;;4397494;28;659014;-69
2022/12/08 05:52:55;;;;;;;25.97;12.60;;;1.10;99.90;;;;;;4407890;28;659188;-68
2022/12/08 05:55:42;;;;;;;24.20;12.35;;;1.10;99.90;;;;;;4414956;28;659623;-69
2022/12/08 05:58:31;;;;;;;28.77;12.47;;;1.10;99.90;;;;;;4410713;28;658480;-69
2022/12/08 06:01:20;;;;;;;22.40;11.70;;;1.10;99.90;;;;;;4388159;28;660193;-68
2022/12/08 06:04:07;;;;;;;21.53;11.23;;;1.20;99.90;;;;;;4390216;28;659128;-69
2022/12/08 06:06:54;;;;;;;21.93;11.17;;;1.10;99.90;;;;;;4411053;28;659128;-69
2022/12/08 06:09:41;;;;;;;22.80;12.47;;;1.00;99.90;;;;;;4388081;28;658844;-68
2022/12/08 06:12:28;;;;;;;29.63;14.57;;;1.00;99.90;;;;;;4413342;28;659137;-68
2022/12/08 06:15:17;;;;;;;30.70;14.97;;;0.90;99.90;;;;;;4388533;28;659143;-69
2022/12/08 06:18:05;;;;;;;27.20;13.93;;;0.90;99.90;;;;;;4410845;28;658486;-68
2022/12/08 06:20:52;;;;;;;29.20;14.43;;;0.90;99.90;;;;;;4393707;28;658561;-68
2022/12/08 06:23:39;;;;;;;25.63;12.57;;;1.00;99.90;;;;;;4408349;28;658608;-67
2022/12/08 06:26:26;;;;;;;23.27;11.27;;;1.00;99.90;;;;;;4390086;28;658841;-68
2022/12/08 06:29:13;;;;;;;25.53;11.53;;;1.10;99.90;;;;;;4413754;28;659326;-67
2022/12/08 06:32:02;;;;;;;25.87;10.87;;;1.20;99.90;;;;;;4390032;28;659041;-67
2022/12/08 06:34:49;;;;;;;17.30;9.03;;;1.20;99.90;;;;;;4407719;28;658551;-67
2022/12/08 06:37:36;;;;;;;21.13;9.37;;;1.20;99.90;;;;;;4390778;28;658130;-69
2022/12/08 06:40:23;;;;;;;20.07;9.27;;;1.20;99.90;;;;;;4416446;28;658535;-69
2022/12/08 06:43:10;;;;;;;18.20;8.00;;;1.10;99.90;;;;;;4393464;28;657443;-69
2022/12/08 06:45:57;;;;;;;18.23;9.53;;;1.20;99.90;;;;;;4411088;28;659163;-69
2022/12/08 06:48:46;;;;;;;20.83;10.87;;;1.10;99.90;;;;;;4403583;28;657684;-69
2022/12/08 06:51:34;;;;;;;21.10;10.03;;;1.00;99.90;;;;;;4408282;28;658845;-69
2022/12/08 06:54:21;;;;;;;27.80;11.30;;;1.00;99.90;;;;;;4394207;28;658495;-69
2022/12/08 06:57:08;;;;;;;27.10;12.20;;;1.00;99.90;;;;;;4413542;28;658824;-68
2022/12/08 06:59:55;;;;;;;23.40;10.80;;;1.00;99.90;;;;;;4394000;28;659125;-68
2022/12/08 07:02:42;;;;;;;24.67;10.83;;;1.00;99.90;;;;;;4412823;28;658155;-68
2022/12/08 07:05:31;;;;;;;23.10;10.87;;;1.00;99.90;;;;;;4413062;28;658827;-68
2022/12/08 07:08:18;;;;;;;23.37;10.83;;;1.00;99.90;;;;;;4393236;28;659417;-68
2022/12/08 07:11:08;;;;;;;23.00;11.07;;;1.00;99.90;;;;;;4391100;28;659779;-68
2022/12/08 07:13:56;;;;;;;23.63;10.70;;;1.00;99.90;;;;;;4390284;28;658585;-68
2022/12/08 07:16:43;;;;;;;23.37;11.00;;;1.00;99.90;;;;;;4418228;28;658747;-67
2022/12/08 07:19:30;;;;;;;63.63;24.48;;;1.00;99.90;;;;;;4398350;28;658994;-68
2022/12/08 07:22:19;;;;;;;48.03;21.20;;;1.00;99.90;;;;;;4414200;28;659424;-68
2022/12/08 07:25:07;;;;;;;34.80;16.40;;;1.10;99.90;;;;;;4391909;28;658632;-68
2022/12/08 07:27:54;;;;;;;33.97;13.63;;;1.00;99.90;;;;;;4412006;28;660088;-68
2022/12/08 07:30:41;;;;;;;45.63;19.27;;;1.00;99.90;;;;;;4391482;28;658377;-68
2022/12/08 07:33:28;;;;;;;41.22;19.73;;;0.90;99.90;;;;;;4415674;28;659203;-67
2022/12/08 07:36:15;;;;;;;48.33;19.73;;;0.90;99.90;;;;;;4394306;28;658781;-68
2022/12/08 07:39:04;;;;;;;46.70;18.50;;;1.00;99.90;;;;;;4407065;28;659330;-68
2022/12/08 07:41:51;;;;;;;41.07;16.57;;;1.00;99.90;;;;;;4392036;28;658664;-68
2022/12/08 07:44:38;;;;;;;39.13;17.97;;;1.00;99.90;;;;;;4410679;28;660342;-67
2022/12/08 07:47:25;;;;;;;37.43;16.57;;;1.10;99.90;;;;;;4394039;28;659488;-67
2022/12/08 07:50:12;;;;;;;38.50;17.03;;;1.10;99.90;;;;;;4408225;28;659982;-68
2022/12/08 07:53:00;;;;;;;36.77;16.13;;;1.10;99.90;;;;;;4415144;28;658186;-65
2022/12/08 07:55:49;;;;;;;47.43;18.60;;;1.20;99.90;;;;;;4419379;28;658779;-65
2022/12/08 07:58:36;;;;;;;43.13;19.00;;;1.40;99.90;;;;;;4394426;28;658443;-65
2022/12/08 08:01:24;;;;;;;47.53;20.20;;;1.50;99.90;;;;;;4409855;28;660091;-66
2022/12/08 08:04:11;;;;;;;47.17;19.33;;;1.60;99.90;;;;;;4394018;28;659521;-64
2022/12/08 08:06:58;;;;;;;38.37;17.43;;;1.80;99.90;;;;;;4412924;28;658968;-65
2022/12/08 08:09:46;;;;;;;37.23;17.03;;;1.80;99.90;;;;;;4387586;28;658833;-65
2022/12/08 08:12:34;;;;;;;37.83;17.10;;;2.00;99.90;;;;;;4410327;28;659586;-65
2022/12/08 08:15:21;;;;;;;31.07;14.50;;;2.00;99.90;;;;;;4391221;28;659314;-64
2022/12/08 08:18:08;;;;;;;29.43;13.63;;;2.10;99.90;;;;;;4408134;28;659245;-65
2022/12/08 08:20:55;;;;;;;26.27;13.43;;;2.10;99.90;;;;;;4397558;28;658835;-65
2022/12/08 08:23:43;;;;;;;28.93;12.97;;;2.20;99.90;;;;;;4407769;28;660122;-64
2022/12/08 08:26:30;;;;;;;30.43;13.90;;;2.30;99.90;;;;;;4403646;28;658412;-66
2022/12/08 08:29:19;;;;;;;28.77;13.83;;;2.30;99.90;;;;;;4413155;28;658065;-65
2022/12/08 08:32:06;;;;;;;28.17;13.57;;;2.50;99.90;;;;;;4395670;28;658111;-64
2022/12/08 08:34:53;;;;;;;28.60;14.23;;;2.50;99.90;;;;;;4415195;28;659589;-65
2022/12/08 08:37:40;;;;;;;32.57;14.80;;;2.60;99.90;;;;;;4390746;28;658459;-65
2022/12/08 08:40:27;;;;;;;26.63;14.27;;;2.70;99.90;;;;;;4419486;28;658478;-65
2022/12/08 08:43:27;;;;;;;31.60;13.97;;;2.80;99.90;;;;;;4411392;28;659188;-65
2022/12/08 08:46:16;;;;;;;27.37;14.00;;;2.80;99.90;;;;;;4387714;28;659038;-65
2022/12/08 08:49:03;;;;;;;27.37;13.33;;;3.00;99.90;;;;;;4393627;28;659021;-65
2022/12/08 08:51:50;;;;;;;29.83;15.90;;;3.00;99.90;;;;;;4397080;28;660449;-66
2022/12/08 08:54:38;;;;;;;33.00;16.17;;;3.00;99.90;;;;;;4417524;28;659198;-66
2022/12/08 08:57:25;;;;;;;31.70;16.30;;;3.10;99.90;;;;;;4393717;28;658415;-65
2022/12/08 09:00:14;;;;;;;33.77;15.97;;;3.10;99.90;;;;;;4428960;28;659613;-64
2022/12/08 09:03:02;;;;;;;29.07;14.87;;;3.10;99.90;;;;;;4837210;28;536213;-65
2022/12/08 09:05:50;;;;;;;29.83;15.83;;;3.20;99.90;;;;;;4409774;28;659773;-65
2022/12/08 09:08:37;;;;;;;31.67;14.80;;;3.30;99.90;;;;;;4392381;28;659473;-64
2022/12/08 09:11:24;;;;;;;21.00;10.07;;;3.40;99.90;;;;;;4406630;28;658429;-65
2022/12/08 09:14:12;;;;;;;19.40;9.63;;;3.40;99.90;;;;;;4394417;28;659469;-64
2022/12/08 09:16:59;;;;;;;21.50;9.97;;;3.50;99.90;;;;;;4410091;28;657962;-64
2022/12/08 09:19:47;;;;;;;20.80;9.20;;;3.50;99.90;;;;;;4389475;28;657256;-65
2022/12/08 09:22:34;;;;;;;21.03;10.47;;;3.60;99.90;;;;;;4407473;28;658300;-65
2022/12/08 09:25:21;;;;;;;32.47;13.50;;;3.70;99.90;;;;;;4393752;28;658626;-65
2022/12/08 09:28:09;;;;;;;33.53;14.07;;;3.80;99.90;;;;;;4410185;28;659683;-65
2022/12/08 09:30:56;;;;;;;33.93;15.10;;;3.80;99.90;;;;;;4390467;28;659110;-65
2022/12/08 09:33:43;;;;;;;28.37;13.97;;;3.80;99.90;;;;;;4410808;28;660221;-65
2022/12/08 09:36:32;;;;;;;36.30;15.27;;;3.90;99.90;;;;;;4386827;28;659130;-66
2022/12/08 09:39:19;;;;;;;32.33;14.10;;;4.10;99.90;;;;;;4410221;28;658417;-65
2022/12/08 09:42:06;;;;;;;16.93;8.37;;;4.30;99.90;;;;;;4386732;28;658443;-65
2022/12/08 09:44:56;;;;;;;23.07;10.17;;;4.10;99.90;;;;;;4408602;28;658026;-67
2022/12/08 09:47:45;;;;;;;15.83;7.13;;;4.10;99.90;;;;;;4384234;28;659417;-65
2022/12/08 09:50:34;;;;;;;18.80;8.73;;;3.90;99.90;;;;;;4391001;28;658155;-65
2022/12/08 09:53:24;;;;;;;14.17;8.20;;;4.00;99.90;;;;;;4390581;28;657205;-65
2022/12/08 09:56:13;;;;;;;20.60;8.43;;;4.00;99.90;;;;;;4394238;28;658160;-64
2022/12/08 09:59:02;;;;;;;15.77;8.20;;;4.00;99.90;;;;;;4398878;28;657406;-65
2022/12/08 10:01:49;;;;;;;16.13;7.95;;;4.00;99.90;;;;;;4400189;28;657933;-65
2022/12/08 10:04:37;;;;;;;16.33;8.43;;;3.90;99.90;;;;;;4393847;28;657430;-64
2022/12/08 10:07:29;;;;;;;18.13;8.07;;;3.70;99.90;;;;;;4412407;28;658091;-65
2022/12/08 10:10:25;;;;;;;14.40;5.30;;;3.70;99.90;;;;;;4365087;28;658187;-64
2022/12/08 10:13:17;;;;;;;16.40;7.07;;;3.80;99.90;;;;;;4390073;28;658953;-64
2022/12/08 10:16:11;;;;;;;17.67;7.83;;;3.60;99.90;;;;;;4396981;28;657058;-64
2022/12/08 10:19:01;;;;;;;10.13;4.97;;;3.60;99.90;;;;;;4387812;28;657950;-64
2022/12/08 10:21:48;;;;;;;13.47;6.67;;;3.60;99.90;;;;;;4388892;28;658401;-66
2022/12/08 10:24:39;;;;;;;14.17;6.93;;;3.60;99.90;;;;;;4390830;28;657886;-67
2022/12/08 10:27:28;;;;;;;13.80;5.33;;;3.70;99.90;;;;;;4387983;28;657624;-65
2022/12/08 10:30:17;;;;;;;17.63;7.83;;;3.60;99.90;;;;;;4394133;28;657766;-67
2022/12/08 10:33:04;;;;;;;15.63;7.47;;;3.60;99.90;;;;;;4417741;28;657574;-66
2022/12/08 10:35:52;;;;;;;15.77;7.47;;;3.50;99.90;;;;;;4388726;28;658647;-68
2022/12/08 10:38:40;;;;;;;16.52;7.20;;;3.50;99.90;;;;;;4419671;28;657408;-66
2022/12/08 10:41:27;;;;;;;15.20;7.60;;;3.50;99.90;;;;;;4398881;28;659150;-67
2022/12/08 10:44:16;;;;;;;15.17;7.40;;;3.50;99.90;;;;;;4417853;28;658349;-66
2022/12/08 10:47:11;;;;;;;15.10;7.40;;;3.40;99.90;;;;;;4394530;28;658217;-67
2022/12/08 10:50:17;;;;;;;12.67;7.37;;;3.40;99.90;;;;;;4391249;28;657955;-67
2022/12/08 10:53:11;;;;;;;16.33;7.10;;;3.50;99.90;;;;;;4390002;28;657405;-66
2022/12/08 10:56:06;;;;;;;14.00;7.07;;;3.60;99.90;;;;;;4390292;28;658353;-66
2022/12/08 10:59:16;;;;;;;15.57;7.47;;;3.70;99.90;;;;;;4392603;28;658315;-67
2022/12/08 11:02:03;;;;;;;14.50;7.17;;;3.70;99.90;;;;;;4821712;28;658301;-68
2022/12/08 11:04:57;;;;;;;15.93;7.80;;;3.70;99.90;;;;;;4421632;28;657164;-66
2022/12/08 11:07:47;;;;;;;15.43;7.93;;;3.70;99.90;;;;;;4409904;28;657603;-67
2022/12/08 11:10:35;;;;;;;13.57;7.00;;;3.70;99.90;;;;;;4409390;28;657402;-66
2022/12/08 11:13:24;;;;;;;15.77;7.80;;;3.60;99.90;;;;;;4388176;28;658092;-67
2022/12/08 11:16:14;;;;;;;14.40;7.57;;;3.60;99.90;;;;;;4399010;28;658565;-66
2022/12/08 11:19:02;;;;;;;15.00;6.93;;;3.60;99.90;;;;;;4399913;28;657473;-66
2022/12/08 11:21:49;;;;;;;20.70;8.10;;;3.60;99.90;;;;;;4410774;28;658227;-66
2022/12/08 11:24:36;;;;;;;15.77;6.10;;;3.50;99.90;;;;;;4400854;28;657526;-65
2022/12/08 11:27:23;;;;;;;13.57;6.47;;;3.60;99.90;;;;;;4410676;28;659326;-67
2022/12/08 11:30:14;;;;;;;13.83;7.27;;;3.50;99.90;;;;;;4394832;28;657584;-66
2022/12/08 11:33:06;;;;;;;18.80;7.50;;;3.40;99.90;;;;;;4392363;28;657500;-66
2022/12/08 11:35:56;;;;;;;17.67;7.10;;;3.40;99.90;;;;;;4398553;28;658345;-67
2022/12/08 11:38:45;;;;;;;12.13;5.57;;;3.40;99.90;;;;;;4392595;28;658248;-67
2022/12/08 11:41:35;;;;;;;17.70;7.73;;;3.40;99.90;;;;;;4388271;28;659352;-66
2022/12/08 11:44:29;;;;;;;18.33;7.63;;;3.30;99.90;;;;;;4385606;28;658994;-66
2022/12/08 11:47:18;;;;;;;16.53;6.97;;;3.30;99.90;;;;;;4392986;28;657809;-66
2022/12/08 11:50:16;;;;;;;14.70;5.90;;;3.30;99.90;;;;;;4392013;28;657841;-66
2022/12/08 11:53:03;;;;;;;13.03;6.80;;;3.30;99.90;;;;;;4390105;28;658730;-66
2022/12/08 11:55:53;;;;;;;16.50;7.53;;;3.20;99.90;;;;;;4389176;28;657638;-66
2022/12/08 11:58:42;;;;;;;17.23;7.77;;;3.10;99.90;;;;;;4390105;28;657623;-67
2022/12/08 12:01:29;;;;;;;14.23;6.43;;;3.10;99.90;;;;;;4409342;28;657236;-66
2022/12/08 12:04:20;;;;;;;15.00;7.37;;;3.10;99.90;;;;;;4392661;28;658737;-67
2022/12/08 12:07:34;;;;;;;14.33;7.60;;;3.20;99.90;;;;;;4389588;28;658727;-66
2022/12/08 12:10:39;;;;;;;18.10;7.83;;;3.10;99.90;;;;;;4391933;28;657301;-66
2022/12/08 12:13:38;;;;;;;15.73;7.17;;;3.10;99.90;;;;;;4369160;28;658074;-66
2022/12/08 12:16:47;;;;;;;13.13;7.23;;;3.00;99.90;;;;;;4372828;28;658604;-67
2022/12/08 12:19:36;;;;;;;12.50;6.77;;;2.90;99.90;;;;;;4389408;28;657221;-66
2022/12/08 12:22:25;;;;;;;15.43;7.80;;;3.00;99.90;;;;;;4388619;28;658058;-67
2022/12/08 12:25:17;;;;;;;14.33;7.23;;;3.00;99.90;;;;;;4386778;28;658200;-67
2022/12/08 12:28:06;;;;;;;15.63;7.43;;;2.80;99.90;;;;;;4392042;28;657632;-65
2022/12/08 12:30:56;;;;;;;16.27;7.57;;;2.80;99.90;;;;;;4396263;28;658547;-67
2022/12/08 12:33:43;;;;;;;16.37;7.73;;;2.90;99.90;;;;;;4389703;28;657862;-67
2022/12/08 12:36:31;;;;;;;14.93;6.83;;;3.00;99.90;;;;;;4392589;28;657433;-66
2022/12/08 12:39:21;;;;;;;18.67;8.00;;;2.90;99.90;;;;;;4412712;28;658483;-66
2022/12/08 12:42:08;;;;;;;19.43;8.30;;;2.90;99.90;;;;;;4392184;28;658571;-66
2022/12/08 12:45:10;;;;;;;21.03;8.70;;;2.90;99.90;;;;;;4396022;28;657598;-67
2022/12/08 12:48:22;;;;;;;22.77;8.23;;;2.90;99.90;;;;;;4390351;28;657501;-66
2022/12/08 12:51:34;;;;;;;19.43;9.07;;;2.90;99.90;;;;;;4404093;28;657767;-67
2022/12/08 12:54:23;;;;;;;19.77;7.17;;;2.90;99.90;;;;;;4392499;28;658072;-66
2022/12/08 12:57:21;;;;;;;17.87;8.20;;;2.90;99.90;;;;;;4392640;28;657364;-66
2022/12/08 13:00:10;;;;;;;19.17;9.03;;;2.80;99.90;;;;;;4390972;28;657873;-66
2022/12/08 13:02:57;;;;;;;18.50;8.40;;;2.80;99.90;;;;;;4861491;28;534445;-66
2022/12/08 13:05:48;;;;;;;17.93;7.37;;;2.90;99.90;;;;;;4411804;28;657792;-66
2022/12/08 13:08:35;;;;;;;18.70;7.10;;;2.80;99.90;;;;;;4391729;28;657976;-67
2022/12/08 13:11:24;;;;;;;16.40;7.93;;;2.70;99.90;;;;;;4418277;28;658067;-66
2022/12/08 13:14:24;;;;;;;14.55;7.63;;;2.80;99.90;;;;;;4391113;28;658550;-66
2022/12/08 13:17:12;;;;;;;14.83;6.67;;;2.80;99.90;;;;;;4369825;28;658012;-66
2022/12/08 13:20:00;;;;;;;13.70;6.47;;;2.70;99.90;;;;;;4409819;28;657164;-66
2022/12/08 13:23:03;;;;;;;14.65;7.00;;;2.70;99.90;;;;;;4397216;28;658104;-66
2022/12/08 13:25:52;;;;;;;14.20;6.57;;;2.70;99.90;;;;;;4365182;28;657592;-67
2022/12/08 13:29:13;;;;;;;12.17;6.30;;;2.70;99.90;;;;;;4412972;28;657387;-66
2022/12/08 13:32:00;;;;;;;16.33;6.33;;;2.70;99.90;;;;;;4402963;28;657663;-67
2022/12/08 13:34:50;;;;;;;15.13;5.77;;;2.60;99.90;;;;;;4410545;28;657955;-66
2022/12/08 13:37:42;;;;;;;12.07;5.90;;;2.50;99.90;;;;;;4390497;28;658480;-66
2022/12/08 13:40:30;;;;;;;12.80;6.73;;;2.50;99.90;;;;;;4389619;28;658146;-66
2022/12/08 13:43:19;;;;;;;13.33;6.63;;;2.50;99.90;;;;;;4394735;28;658417;-66
2022/12/08 13:46:08;;;;;;;12.27;6.43;;;2.50;99.90;;;;;;4392470;28;657701;-67
2022/12/08 13:48:55;;;;;;;13.10;6.40;;;2.50;99.90;;;;;;4389863;28;657903;-67
2022/12/08 13:51:43;;;;;;;13.87;7.10;;;2.40;99.90;;;;;;4411677;28;657130;-66
2022/12/08 13:54:31;;;;;;;12.67;6.70;;;2.40;99.90;;;;;;4396216;28;657647;-67
2022/12/08 13:57:24;;;;;;;14.93;6.20;;;2.40;99.90;;;;;;4413348;28;656682;-66
2022/12/08 14:00:15;;;;;;;12.80;6.00;;;2.40;99.90;;;;;;4368692;28;658587;-67
2022/12/08 14:03:04;;;;;;;12.37;6.00;;;2.40;99.90;;;;;;4396879;28;657789;-66
2022/12/08 14:05:51;;;;;;;13.77;6.93;;;2.30;99.90;;;;;;4389003;28;657719;-68
2022/12/08 14:08:39;;;;;;;12.50;6.60;;;2.30;99.90;;;;;;4410421;28;658706;-66
2022/12/08 14:11:34;;;;;;;13.43;6.00;;;2.30;99.90;;;;;;4393586;28;657741;-66
2022/12/08 14:14:22;;;;;;;14.87;7.20;;;2.30;99.90;;;;;;4393570;28;658861;-66
2022/12/08 14:17:11;;;;;;;11.60;6.47;;;2.30;99.90;;;;;;4413163;28;657396;-66
2022/12/08 14:20:00;;;;;;;13.47;6.30;;;2.20;99.90;;;;;;4386234;28;659318;-66
2022/12/08 14:22:49;;;;;;;9.73;6.00;;;2.20;99.90;;;;;;4393413;28;657850;-66
2022/12/08 14:25:36;;;;;;;12.47;6.50;;;2.20;99.90;;;;;;4399659;28;656535;-66
2022/12/08 14:28:24;;;;;;;11.67;6.60;;;2.20;99.90;;;;;;4417109;28;659089;-66